Terminal Aerodrome Forecast
Issued by NWS

Home | Current Version | Previous Version | Text Only | Print | Product List | Glossary On
Versions: 1 2 3 4 5 6 7 8 9 10 11 12 13 14 15 16 17 18 19 20 21 22 23 24 25 26 27 28 29 30 31 32 33 34 35 36 37 38 39 40 41 42 43 44 45 46 47 48 49 50
000
FTUS43 KDMX 272146 AAB
TAFOTM
TAF AMD
KOTM 272146Z 2722/2818 14009KT P6SM BKN150
     FM280200 15011KT P6SM VCSH OVC025
     FM280600 16011KT P6SM VCSH OVC015
     FM281000 17010KT 5SM BR OVC007
     FM281300 19010KT 5SM -SHRA OVC015=

USA.gov is the U.S. government's official web portal to all federal, state and local government web resources and services.